sensor_id;sensor_type;location;lat;lon;timestamp;temperature;humidity
24800;DHT22;12897;50.812;4.430;2022-08-23T00:02:08;19.30;99.90
24800;DHT22;12897;50.812;4.430;2022-08-23T00:04:39;19.20;99.90
24800;DHT22;12897;50.812;4.430;2022-08-23T00:07:10;19.30;99.90
24800;DHT22;12897;50.812;4.430;2022-08-23T00:09:38;19.40;99.90
24800;DHT22;12897;50.812;4.430;2022-08-23T00:12:16;19.50;99.90
24800;DHT22;12897;50.812;4.430;2022-08-23T00:14:47;19.70;99.90
24800;DHT22;12897;50.812;4.430;2022-08-23T00:17:15;19.50;99.90
24800;DHT22;12897;50.812;4.430;2022-08-23T00:19:43;19.40;99.90
24800;DHT22;12897;50.812;4.430;2022-08-23T00:22:11;19.50;99.90
24800;DHT22;12897;50.812;4.430;2022-08-23T00:24:40;19.40;99.90
24800;DHT22;12897;50.812;4.430;2022-08-23T00:27:14;19.40;99.90
24800;DHT22;12897;50.812;4.430;2022-08-23T00:29:50;19.40;99.90
24800;DHT22;12897;50.812;4.430;2022-08-23T00:32:24;19.30;99.90
24800;DHT22;12897;50.812;4.430;2022-08-23T00:34:52;19.30;99.90
24800;DHT22;12897;50.812;4.430;2022-08-23T00:37:21;19.30;99.90
24800;DHT22;12897;50.812;4.430;2022-08-23T00:39:49;19.30;99.90
24800;DHT22;12897;50.812;4.430;2022-08-23T00:45:24;19.20;99.90
24800;DHT22;12897;50.812;4.430;2022-08-23T00:48:10;19.10;99.90
24800;DHT22;12897;50.812;4.430;2022-08-23T00:50:43;19.00;99.90
24800;DHT22;12897;50.812;4.430;2022-08-23T00:53:14;19.00;99.90
24800;DHT22;12897;50.812;4.430;2022-08-23T00:55:43;19.10;99.90
24800;DHT22;12897;50.812;4.430;2022-08-23T00:58:13;19.10;99.90
24800;DHT22;12897;50.812;4.430;2022-08-23T01:00:41;19.10;99.90
24800;DHT22;12897;50.812;4.430;2022-08-23T01:03:10;19.20;99.90
24800;DHT22;12897;50.812;4.430;2022-08-23T01:05:43;19.10;99.90
24800;DHT22;12897;50.812;4.430;2022-08-23T01:08:10;19.30;99.90
24800;DHT22;12897;50.812;4.430;2022-08-23T01:10:44;19.20;99.90
24800;DHT22;12897;50.812;4.430;2022-08-23T01:13:24;19.10;99.90
24800;DHT22;12897;50.812;4.430;2022-08-23T01:15:59;19.10;99.90
24800;DHT22;12897;50.812;4.430;2022-08-23T01:18:27;19.00;99.90
24800;DHT22;12897;50.812;4.430;2022-08-23T01:21:06;19.00;99.90
24800;DHT22;12897;50.812;4.430;2022-08-23T01:23:54;19.00;99.90
24800;DHT22;12897;50.812;4.430;2022-08-23T01:26:25;19.10;99.90
24800;DHT22;12897;50.812;4.430;2022-08-23T01:28:53;19.20;99.90
24800;DHT22;12897;50.812;4.430;2022-08-23T01:31:22;19.30;99.90
24800;DHT22;12897;50.812;4.430;2022-08-23T01:33:58;19.20;99.90
24800;DHT22;12897;50.812;4.430;2022-08-23T01:36:21;19.10;99.90
24800;DHT22;12897;50.812;4.430;2022-08-23T01:38:53;19.00;99.90
24800;DHT22;12897;50.812;4.430;2022-08-23T01:41:27;19.00;99.90
24800;DHT22;12897;50.812;4.430;2022-08-23T01:43:55;19.00;99.90
24800;DHT22;12897;50.812;4.430;2022-08-23T01:46:23;19.00;99.90
24800;DHT22;12897;50.812;4.430;2022-08-23T01:48:53;19.00;99.90
24800;DHT22;12897;50.812;4.430;2022-08-23T01:51:22;19.00;99.90
24800;DHT22;12897;50.812;4.430;2022-08-23T01:53:49;19.00;99.90
24800;DHT22;12897;50.812;4.430;2022-08-23T01:56:17;19.00;99.90
24800;DHT22;12897;50.812;4.430;2022-08-23T01:58:46;18.90;99.90
24800;DHT22;12897;50.812;4.430;2022-08-23T02:01:17;18.90;99.90
24800;DHT22;12897;50.812;4.430;2022-08-23T02:03:45;18.90;99.90
24800;DHT22;12897;50.812;4.430;2022-08-23T02:06:14;18.80;99.90
24800;DHT22;12897;50.812;4.430;2022-08-23T02:08:41;18.90;99.90
24800;DHT22;12897;50.812;4.430;2022-08-23T02:11:33;19.00;99.90
24800;DHT22;12897;50.812;4.430;2022-08-23T02:14:03;18.80;99.90
24800;DHT22;12897;50.812;4.430;2022-08-23T02:16:38;18.70;99.90
24800;DHT22;12897;50.812;4.430;2022-08-23T02:19:04;18.60;99.90
24800;DHT22;12897;50.812;4.430;2022-08-23T02:24:12;18.80;99.90
24800;DHT22;12897;50.812;4.430;2022-08-23T02:26:43;18.90;99.90
24800;DHT22;12897;50.812;4.430;2022-08-23T02:29:12;18.80;99.90
24800;DHT22;12897;50.812;4.430;2022-08-23T02:31:43;18.90;99.90
24800;DHT22;12897;50.812;4.430;2022-08-23T02:34:12;19.10;99.90
24800;DHT22;12897;50.812;4.430;2022-08-23T02:36:40;18.90;99.90
24800;DHT22;12897;50.812;4.430;2022-08-23T02:39:10;18.80;99.90
24800;DHT22;12897;50.812;4.430;2022-08-23T02:41:38;18.70;99.90
24800;DHT22;12897;50.812;4.430;2022-08-23T02:44:07;18.80;99.90
24800;DHT22;12897;50.812;4.430;2022-08-23T02:46:36;18.90;99.90
24800;DHT22;12897;50.812;4.430;2022-08-23T02:49:03;18.90;99.90
24800;DHT22;12897;50.812;4.430;2022-08-23T02:51:31;18.70;99.90
24800;DHT22;12897;50.812;4.430;2022-08-23T02:53:59;18.60;99.90
24800;DHT22;12897;50.812;4.430;2022-08-23T02:56:26;18.50;99.90
24800;DHT22;12897;50.812;4.430;2022-08-23T02:58:54;18.50;99.90
24800;DHT22;12897;50.812;4.430;2022-08-23T03:01:28;18.50;99.90
24800;DHT22;12897;50.812;4.430;2022-08-23T03:03:56;18.30;99.90
24800;DHT22;12897;50.812;4.430;2022-08-23T03:06:24;18.30;99.90
24800;DHT22;12897;50.812;4.430;2022-08-23T03:08:52;18.30;99.90
24800;DHT22;12897;50.812;4.430;2022-08-23T03:11:21;18.30;99.90
24800;DHT22;12897;50.812;4.430;2022-08-23T03:13:49;18.30;99.90
24800;DHT22;12897;50.812;4.430;2022-08-23T03:16:18;18.20;99.90
24800;DHT22;12897;50.812;4.430;2022-08-23T03:18:47;18.30;99.90
24800;DHT22;12897;50.812;4.430;2022-08-23T03:21:15;18.20;99.90
24800;DHT22;12897;50.812;4.430;2022-08-23T03:23:43;18.20;99.90
24800;DHT22;12897;50.812;4.430;2022-08-23T03:26:12;18.20;99.90
24800;DHT22;12897;50.812;4.430;2022-08-23T03:28:42;18.20;99.90
24800;DHT22;12897;50.812;4.430;2022-08-23T03:31:10;18.10;99.90
24800;DHT22;12897;50.812;4.430;2022-08-23T03:33:39;18.10;99.90
24800;DHT22;12897;50.812;4.430;2022-08-23T03:36:08;18.10;99.90
24800;DHT22;12897;50.812;4.430;2022-08-23T03:38:36;18.10;99.90
24800;DHT22;12897;50.812;4.430;2022-08-23T03:41:05;18.10;99.90
24800;DHT22;12897;50.812;4.430;2022-08-23T03:43:33;18.30;99.90
24800;DHT22;12897;50.812;4.430;2022-08-23T03:46:00;18.30;99.90
24800;DHT22;12897;50.812;4.430;2022-08-23T03:48:28;18.40;99.90
24800;DHT22;12897;50.812;4.430;2022-08-23T03:50:55;18.40;99.90
24800;DHT22;12897;50.812;4.430;2022-08-23T03:53:23;18.50;99.90
24800;DHT22;12897;50.812;4.430;2022-08-23T03:55:52;18.40;99.90
24800;DHT22;12897;50.812;4.430;2022-08-23T03:58:21;18.40;99.90
24800;DHT22;12897;50.812;4.430;2022-08-23T04:00:51;18.40;99.90
24800;DHT22;12897;50.812;4.430;2022-08-23T04:03:18;18.30;99.90
24800;DHT22;12897;50.812;4.430;2022-08-23T04:05:46;18.30;99.90
24800;DHT22;12897;50.812;4.430;2022-08-23T04:08:13;18.30;99.90
24800;DHT22;12897;50.812;4.430;2022-08-23T04:10:41;18.20;99.90
24800;DHT22;12897;50.812;4.430;2022-08-23T04:13:08;18.20;99.90
24800;DHT22;12897;50.812;4.430;2022-08-23T04:15:37;18.20;99.90
24800;DHT22;12897;50.812;4.430;2022-08-23T04:18:05;18.20;99.90
24800;DHT22;12897;50.812;4.430;2022-08-23T04:20:33;18.30;99.90
24800;DHT22;12897;50.812;4.430;2022-08-23T04:23:00;18.30;99.90
24800;DHT22;12897;50.812;4.430;2022-08-23T04:25:28;18.20;99.90
24800;DHT22;12897;50.812;4.430;2022-08-23T04:27:57;18.20;99.90
24800;DHT22;12897;50.812;4.430;2022-08-23T04:30:26;18.20;99.90
24800;DHT22;12897;50.812;4.430;2022-08-23T04:32:53;18.20;99.90
24800;DHT22;12897;50.812;4.430;2022-08-23T04:35:21;18.20;99.90
24800;DHT22;12897;50.812;4.430;2022-08-23T04:37:49;18.20;99.90
24800;DHT22;12897;50.812;4.430;2022-08-23T04:40:17;18.10;99.90
24800;DHT22;12897;50.812;4.430;2022-08-23T04:43:03;18.10;99.90
24800;DHT22;12897;50.812;4.430;2022-08-23T04:45:30;18.30;99.90
24800;DHT22;12897;50.812;4.430;2022-08-23T04:47:58;18.20;99.90
24800;DHT22;12897;50.812;4.430;2022-08-23T04:50:25;18.30;99.90
24800;DHT22;12897;50.812;4.430;2022-08-23T04:52:53;18.40;99.90
24800;DHT22;12897;50.812;4.430;2022-08-23T04:55:21;18.30;99.90
24800;DHT22;12897;50.812;4.430;2022-08-23T04:57:48;18.20;99.90
24800;DHT22;12897;50.812;4.430;2022-08-23T05:00:16;18.10;99.90
24800;DHT22;12897;50.812;4.430;2022-08-23T05:02:44;18.10;99.90
24800;DHT22;12897;50.812;4.430;2022-08-23T05:05:12;18.20;99.90
24800;DHT22;12897;50.812;4.430;2022-08-23T05:07:40;18.10;99.90
24800;DHT22;12897;50.812;4.430;2022-08-23T05:10:10;18.10;99.90
24800;DHT22;12897;50.812;4.430;2022-08-23T05:12:38;18.10;99.90
24800;DHT22;12897;50.812;4.430;2022-08-23T05:15:07;18.10;99.90
24800;DHT22;12897;50.812;4.430;2022-08-23T05:17:42;18.20;99.90
24800;DHT22;12897;50.812;4.430;2022-08-23T05:20:09;18.20;99.90
24800;DHT22;12897;50.812;4.430;2022-08-23T05:22:39;18.10;99.90
24800;DHT22;12897;50.812;4.430;2022-08-23T05:25:09;18.20;99.90
24800;DHT22;12897;50.812;4.430;2022-08-23T05:27:36;18.10;99.90
24800;DHT22;12897;50.812;4.430;2022-08-23T05:30:05;18.10;99.90
24800;DHT22;12897;50.812;4.430;2022-08-23T05:32:33;18.10;99.90
24800;DHT22;12897;50.812;4.430;2022-08-23T05:35:01;18.10;99.90
24800;DHT22;12897;50.812;4.430;2022-08-23T05:37:31;18.30;99.90
24800;DHT22;12897;50.812;4.430;2022-08-23T05:39:58;18.30;99.90
24800;DHT22;12897;50.812;4.430;2022-08-23T05:42:27;18.40;99.90
24800;DHT22;12897;50.812;4.430;2022-08-23T05:44:54;18.40;99.90
24800;DHT22;12897;50.812;4.430;2022-08-23T05:47:22;18.50;99.90
24800;DHT22;12897;50.812;4.430;2022-08-23T05:49:52;18.60;99.90
24800;DHT22;12897;50.812;4.430;2022-08-23T05:52:21;19.00;99.90
24800;DHT22;12897;50.812;4.430;2022-08-23T05:54:48;19.40;99.90
24800;DHT22;12897;50.812;4.430;2022-08-23T05:57:16;19.90;99.90
24800;DHT22;12897;50.812;4.430;2022-08-23T05:59:45;20.30;99.90
24800;DHT22;12897;50.812;4.430;2022-08-23T06:02:13;20.50;99.90
24800;DHT22;12897;50.812;4.430;2022-08-23T06:04:40;20.70;99.90
24800;DHT22;12897;50.812;4.430;2022-08-23T06:07:08;20.80;99.90
24800;DHT22;12897;50.812;4.430;2022-08-23T06:09:37;21.10;99.90
24800;DHT22;12897;50.812;4.430;2022-08-23T06:12:04;21.30;99.90
24800;DHT22;12897;50.812;4.430;2022-08-23T06:14:32;21.60;99.90
24800;DHT22;12897;50.812;4.430;2022-08-23T06:16:59;21.90;99.90
24800;DHT22;12897;50.812;4.430;2022-08-23T06:19:27;22.00;99.90
24800;DHT22;12897;50.812;4.430;2022-08-23T06:21:54;22.20;99.90
24800;DHT22;12897;50.812;4.430;2022-08-23T06:24:22;22.30;99.90
24800;DHT22;12897;50.812;4.430;2022-08-23T06:26:50;22.50;99.90
24800;DHT22;12897;50.812;4.430;2022-08-23T06:29:19;22.50;99.90
24800;DHT22;12897;50.812;4.430;2022-08-23T06:31:49;22.60;99.90
24800;DHT22;12897;50.812;4.430;2022-08-23T06:34:19;22.70;99.90
24800;DHT22;12897;50.812;4.430;2022-08-23T06:36:54;22.90;99.90
24800;DHT22;12897;50.812;4.430;2022-08-23T06:39:20;22.90;99.90
24800;DHT22;12897;50.812;4.430;2022-08-23T06:41:49;23.10;99.90
24800;DHT22;12897;50.812;4.430;2022-08-23T06:44:18;23.20;99.90
24800;DHT22;12897;50.812;4.430;2022-08-23T06:46:46;23.20;99.90
24800;DHT22;12897;50.812;4.430;2022-08-23T06:49:15;23.20;99.90
24800;DHT22;12897;50.812;4.430;2022-08-23T06:51:45;23.20;99.90
24800;DHT22;12897;50.812;4.430;2022-08-23T06:54:14;23.20;99.90
24800;DHT22;12897;50.812;4.430;2022-08-23T06:56:43;23.10;99.90
24800;DHT22;12897;50.812;4.430;2022-08-23T06:59:12;23.10;99.90
24800;DHT22;12897;50.812;4.430;2022-08-23T07:01:45;23.20;99.90
24800;DHT22;12897;50.812;4.430;2022-08-23T07:04:23;23.30;99.90
24800;DHT22;12897;50.812;4.430;2022-08-23T07:06:47;23.30;99.90
24800;DHT22;12897;50.812;4.430;2022-08-23T07:09:15;23.60;99.90
24800;DHT22;12897;50.812;4.430;2022-08-23T07:11:45;23.80;99.90
24800;DHT22;12897;50.812;4.430;2022-08-23T07:14:14;23.80;99.90
24800;DHT22;12897;50.812;4.430;2022-08-23T07:16:45;23.20;99.90
24800;DHT22;12897;50.812;4.430;2022-08-23T07:19:15;23.10;99.90
24800;DHT22;12897;50.812;4.430;2022-08-23T07:21:43;23.00;99.90
24800;DHT22;12897;50.812;4.430;2022-08-23T07:24:11;23.00;99.90
24800;DHT22;12897;50.812;4.430;2022-08-23T07:26:40;22.90;99.90
24800;DHT22;12897;50.812;4.430;2022-08-23T07:29:09;22.80;99.90
24800;DHT22;12897;50.812;4.430;2022-08-23T07:31:40;22.90;99.90
24800;DHT22;12897;50.812;4.430;2022-08-23T07:34:08;23.20;99.90
24800;DHT22;12897;50.812;4.430;2022-08-23T07:36:38;23.40;99.90
24800;DHT22;12897;50.812;4.430;2022-08-23T07:39:07;23.60;99.90
24800;DHT22;12897;50.812;4.430;2022-08-23T07:41:35;23.90;99.90
24800;DHT22;12897;50.812;4.430;2022-08-23T07:44:05;24.10;99.90
24800;DHT22;12897;50.812;4.430;2022-08-23T07:46:35;24.00;99.90
24800;DHT22;12897;50.812;4.430;2022-08-23T07:49:03;24.00;99.90
24800;DHT22;12897;50.812;4.430;2022-08-23T07:51:33;24.10;99.90
24800;DHT22;12897;50.812;4.430;2022-08-23T07:54:03;24.20;99.90
24800;DHT22;12897;50.812;4.430;2022-08-23T07:56:31;24.20;99.90
24800;DHT22;12897;50.812;4.430;2022-08-23T07:58:59;24.20;99.90
24800;DHT22;12897;50.812;4.430;2022-08-23T08:01:28;24.20;99.90
24800;DHT22;12897;50.812;4.430;2022-08-23T08:03:58;24.40;99.90
24800;DHT22;12897;50.812;4.430;2022-08-23T08:06:37;24.30;99.90
24800;DHT22;12897;50.812;4.430;2022-08-23T08:08:59;24.30;99.90
24800;DHT22;12897;50.812;4.430;2022-08-23T08:11:29;24.00;99.90
24800;DHT22;12897;50.812;4.430;2022-08-23T08:13:57;23.90;99.90
24800;DHT22;12897;50.812;4.430;2022-08-23T08:16:28;24.10;99.90
24800;DHT22;12897;50.812;4.430;2022-08-23T08:18:58;24.10;99.90
24800;DHT22;12897;50.812;4.430;2022-08-23T08:21:27;24.10;99.90
24800;DHT22;12897;50.812;4.430;2022-08-23T08:23:56;24.30;99.90
24800;DHT22;12897;50.812;4.430;2022-08-23T08:26:24;24.40;99.90
24800;DHT22;12897;50.812;4.430;2022-08-23T08:28:53;24.50;99.90
24800;DHT22;12897;50.812;4.430;2022-08-23T08:31:24;24.50;99.90
24800;DHT22;12897;50.812;4.430;2022-08-23T08:33:51;24.50;99.90
24800;DHT22;12897;50.812;4.430;2022-08-23T08:36:41;24.70;99.90
24800;DHT22;12897;50.812;4.430;2022-08-23T08:39:11;24.80;99.90
24800;DHT22;12897;50.812;4.430;2022-08-23T08:41:45;25.10;99.90
24800;DHT22;12897;50.812;4.430;2022-08-23T08:44:40;25.40;99.90
24800;DHT22;12897;50.812;4.430;2022-08-23T08:52:22;25.80;99.90
24800;DHT22;12897;50.812;4.430;2022-08-23T08:54:55;25.90;99.90
24800;DHT22;12897;50.812;4.430;2022-08-23T08:57:22;25.90;99.90
24800;DHT22;12897;50.812;4.430;2022-08-23T09:00:07;26.00;99.90
24800;DHT22;12897;50.812;4.430;2022-08-23T09:02:34;26.20;99.90
24800;DHT22;12897;50.812;4.430;2022-08-23T09:05:05;26.30;99.90
24800;DHT22;12897;50.812;4.430;2022-08-23T09:07:54;26.50;99.90
24800;DHT22;12897;50.812;4.430;2022-08-23T09:18:08;26.70;99.90
24800;DHT22;12897;50.812;4.430;2022-08-23T09:20:37;26.80;99.90
24800;DHT22;12897;50.812;4.430;2022-08-23T09:23:27;26.90;99.90
24800;DHT22;12897;50.812;4.430;2022-08-23T09:25:57;27.10;99.90
24800;DHT22;12897;50.812;4.430;2022-08-23T09:28:32;26.90;99.90
24800;DHT22;12897;50.812;4.430;2022-08-23T09:30:59;26.90;99.90
24800;DHT22;12897;50.812;4.430;2022-08-23T09:33:38;26.90;99.90
24800;DHT22;12897;50.812;4.430;2022-08-23T09:36:12;26.90;99.90
24800;DHT22;12897;50.812;4.430;2022-08-23T09:38:34;27.00;99.90
24800;DHT22;12897;50.812;4.430;2022-08-23T09:41:14;27.10;99.90
24800;DHT22;12897;50.812;4.430;2022-08-23T09:43:42;27.20;99.90
24800;DHT22;12897;50.812;4.430;2022-08-23T09:46:03;27.30;99.90
24800;DHT22;12897;50.812;4.430;2022-08-23T09:48:33;27.10;99.90
24800;DHT22;12897;50.812;4.430;2022-08-23T09:51:22;27.20;99.90
24800;DHT22;12897;50.812;4.430;2022-08-23T09:54:01;27.40;99.90
24800;DHT22;12897;50.812;4.430;2022-08-23T09:56:25;27.60;99.90
24800;DHT22;12897;50.812;4.430;2022-08-23T09:58:54;27.70;99.90
24800;DHT22;12897;50.812;4.430;2022-08-23T10:01:25;27.40;99.90
24800;DHT22;12897;50.812;4.430;2022-08-23T10:04:15;27.00;99.90
24800;DHT22;12897;50.812;4.430;2022-08-23T10:06:44;27.20;99.90
24800;DHT22;12897;50.812;4.430;2022-08-23T10:09:29;27.00;99.90
24800;DHT22;12897;50.812;4.430;2022-08-23T10:11:59;27.00;99.90
24800;DHT22;12897;50.812;4.430;2022-08-23T10:14:29;26.70;99.90
24800;DHT22;12897;50.812;4.430;2022-08-23T10:19:59;26.10;99.90
24800;DHT22;12897;50.812;4.430;2022-08-23T10:22:25;26.00;99.90
24800;DHT22;12897;50.812;4.430;2022-08-23T10:25:13;25.90;99.90
24800;DHT22;12897;50.812;4.430;2022-08-23T10:28:14;26.20;99.90
24800;DHT22;12897;50.812;4.430;2022-08-23T10:33:59;26.50;99.90
24800;DHT22;12897;50.812;4.430;2022-08-23T10:36:27;26.80;99.90
24800;DHT22;12897;50.812;4.430;2022-08-23T10:39:00;26.70;99.90
24800;DHT22;12897;50.812;4.430;2022-08-23T10:41:58;26.50;99.90
24800;DHT22;12897;50.812;4.430;2022-08-23T10:44:36;26.50;99.90
24800;DHT22;12897;50.812;4.430;2022-08-23T10:47:26;26.80;99.90
24800;DHT22;12897;50.812;4.430;2022-08-23T10:49:54;27.00;99.90
24800;DHT22;12897;50.812;4.430;2022-08-23T10:52:37;27.00;99.90
24800;DHT22;12897;50.812;4.430;2022-08-23T10:55:12;26.90;99.90
24800;DHT22;12897;50.812;4.430;2022-08-23T10:57:47;26.90;99.90
24800;DHT22;12897;50.812;4.430;2022-08-23T11:00:18;27.20;99.90
24800;DHT22;12897;50.812;4.430;2022-08-23T11:05:42;27.70;99.90
24800;DHT22;12897;50.812;4.430;2022-08-23T11:08:28;27.90;99.90
24800;DHT22;12897;50.812;4.430;2022-08-23T11:10:47;27.90;99.90
24800;DHT22;12897;50.812;4.430;2022-08-23T11:13:28;27.80;99.90
24800;DHT22;12897;50.812;4.430;2022-08-23T11:16:35;27.90;99.90
24800;DHT22;12897;50.812;4.430;2022-08-23T11:18:43;27.80;99.90
24800;DHT22;12897;50.812;4.430;2022-08-23T11:31:42;27.20;99.90
24800;DHT22;12897;50.812;4.430;2022-08-23T11:34:30;27.20;99.90
24800;DHT22;12897;50.812;4.430;2022-08-23T11:40:00;27.30;99.90
24800;DHT22;12897;50.812;4.430;2022-08-23T11:48:07;27.40;99.90
24800;DHT22;12897;50.812;4.430;2022-08-23T11:59:29;27.50;99.90
24800;DHT22;12897;50.812;4.430;2022-08-23T12:01:57;27.40;99.90
24800;DHT22;12897;50.812;4.430;2022-08-23T12:04:35;27.40;99.90
24800;DHT22;12897;50.812;4.430;2022-08-23T12:07:01;27.40;99.90
24800;DHT22;12897;50.812;4.430;2022-08-23T12:12:11;27.50;99.90
24800;DHT22;12897;50.812;4.430;2022-08-23T12:14:48;27.40;99.90
24800;DHT22;12897;50.812;4.430;2022-08-23T12:19:59;27.40;99.90
24800;DHT22;12897;50.812;4.430;2022-08-23T12:22:33;27.20;99.90
24800;DHT22;12897;50.812;4.430;2022-08-23T12:25:05;27.30;99.90
24800;DHT22;12897;50.812;4.430;2022-08-23T12:30:31;27.80;99.90
24800;DHT22;12897;50.812;4.430;2022-08-23T12:35:53;28.00;99.90
24800;DHT22;12897;50.812;4.430;2022-08-23T12:40:54;27.90;99.90
24800;DHT22;12897;50.812;4.430;2022-08-23T12:43:23;28.00;99.90
24800;DHT22;12897;50.812;4.430;2022-08-23T12:45:57;28.00;99.90
24800;DHT22;12897;50.812;4.430;2022-08-23T12:48:30;27.80;99.90
24800;DHT22;12897;50.812;4.430;2022-08-23T12:51:01;27.70;99.90
24800;DHT22;12897;50.812;4.430;2022-08-23T12:53:36;27.90;99.90
24800;DHT22;12897;50.812;4.430;2022-08-23T12:56:10;28.10;99.90
24800;DHT22;12897;50.812;4.430;2022-08-23T12:58:37;28.00;99.90
24800;DHT22;12897;50.812;4.430;2022-08-23T13:01:17;28.20;99.90
24800;DHT22;12897;50.812;4.430;2022-08-23T13:03:45;28.40;99.90
24800;DHT22;12897;50.812;4.430;2022-08-23T13:06:18;28.40;99.90
24800;DHT22;12897;50.812;4.430;2022-08-23T13:08:52;28.40;99.90
24800;DHT22;12897;50.812;4.430;2022-08-23T13:11:21;28.50;99.90
24800;DHT22;12897;50.812;4.430;2022-08-23T13:13:49;28.60;99.90
24800;DHT22;12897;50.812;4.430;2022-08-23T13:19:07;28.40;99.90
24800;DHT22;12897;50.812;4.430;2022-08-23T13:21:29;28.50;99.90
24800;DHT22;12897;50.812;4.430;2022-08-23T13:23:59;28.80;99.90
24800;DHT22;12897;50.812;4.430;2022-08-23T13:26:39;29.00;99.90
24800;DHT22;12897;50.812;4.430;2022-08-23T13:29:07;28.90;99.90
24800;DHT22;12897;50.812;4.430;2022-08-23T13:34:35;28.70;99.90
24800;DHT22;12897;50.812;4.430;2022-08-23T13:39:58;28.40;99.90
24800;DHT22;12897;50.812;4.430;2022-08-23T13:42:32;28.50;99.90
24800;DHT22;12897;50.812;4.430;2022-08-23T13:45:04;28.70;99.90
24800;DHT22;12897;50.812;4.430;2022-08-23T13:47:27;28.80;99.90
24800;DHT22;12897;50.812;4.430;2022-08-23T13:49:56;28.90;99.90
24800;DHT22;12897;50.812;4.430;2022-08-23T13:52:25;28.90;99.90
24800;DHT22;12897;50.812;4.430;2022-08-23T13:54:53;28.70;99.90
24800;DHT22;12897;50.812;4.430;2022-08-23T13:57:21;28.70;99.90
24800;DHT22;12897;50.812;4.430;2022-08-23T13:59:55;28.60;99.90
24800;DHT22;12897;50.812;4.430;2022-08-23T14:02:21;28.50;99.90
24800;DHT22;12897;50.812;4.430;2022-08-23T14:04:49;28.40;99.90
24800;DHT22;12897;50.812;4.430;2022-08-23T14:07:17;28.50;99.90
24800;DHT22;12897;50.812;4.430;2022-08-23T14:09:46;28.60;99.90
24800;DHT22;12897;50.812;4.430;2022-08-23T14:12:23;28.60;99.90
24800;DHT22;12897;50.812;4.430;2022-08-23T14:14:47;28.40;99.90
24800;DHT22;12897;50.812;4.430;2022-08-23T14:17:15;28.30;99.90
24800;DHT22;12897;50.812;4.430;2022-08-23T14:19:44;28.30;99.90
24800;DHT22;12897;50.812;4.430;2022-08-23T14:22:13;28.50;99.90
24800;DHT22;12897;50.812;4.430;2022-08-23T14:24:42;28.70;99.90
24800;DHT22;12897;50.812;4.430;2022-08-23T14:27:11;28.70;99.90
24800;DHT22;12897;50.812;4.430;2022-08-23T14:29:38;28.80;99.90
24800;DHT22;12897;50.812;4.430;2022-08-23T14:32:06;28.80;99.90
24800;DHT22;12897;50.812;4.430;2022-08-23T14:34:33;28.60;99.90
24800;DHT22;12897;50.812;4.430;2022-08-23T14:37:01;28.50;99.90
24800;DHT22;12897;50.812;4.430;2022-08-23T14:39:28;28.40;99.90
24800;DHT22;12897;50.812;4.430;2022-08-23T14:41:56;28.60;99.90
24800;DHT22;12897;50.812;4.430;2022-08-23T14:44:24;28.50;99.90
24800;DHT22;12897;50.812;4.430;2022-08-23T14:46:52;28.10;99.90
24800;DHT22;12897;50.812;4.430;2022-08-23T14:49:20;28.10;99.90
24800;DHT22;12897;50.812;4.430;2022-08-23T14:51:49;28.30;99.90
24800;DHT22;12897;50.812;4.430;2022-08-23T14:54:24;28.10;99.90
24800;DHT22;12897;50.812;4.430;2022-08-23T14:56:47;28.00;99.90
24800;DHT22;12897;50.812;4.430;2022-08-23T14:59:15;28.20;99.90
24800;DHT22;12897;50.812;4.430;2022-08-23T15:01:43;28.40;99.90
24800;DHT22;12897;50.812;4.430;2022-08-23T15:04:17;28.60;99.90
24800;DHT22;12897;50.812;4.430;2022-08-23T15:06:45;28.70;99.90
24800;DHT22;12897;50.812;4.430;2022-08-23T15:09:13;28.80;99.90
24800;DHT22;12897;50.812;4.430;2022-08-23T15:11:41;29.00;99.90
24800;DHT22;12897;50.812;4.430;2022-08-23T15:14:08;28.80;99.90
24800;DHT22;12897;50.812;4.430;2022-08-23T15:16:37;28.60;99.90
24800;DHT22;12897;50.812;4.430;2022-08-23T15:19:06;28.40;99.90
24800;DHT22;12897;50.812;4.430;2022-08-23T15:21:33;28.40;99.90
24800;DHT22;12897;50.812;4.430;2022-08-23T15:24:01;28.40;99.90
24800;DHT22;12897;50.812;4.430;2022-08-23T15:26:29;28.40;99.90
24800;DHT22;12897;50.812;4.430;2022-08-23T15:28:59;28.50;99.90
24800;DHT22;12897;50.812;4.430;2022-08-23T15:31:27;28.40;99.90
24800;DHT22;12897;50.812;4.430;2022-08-23T15:33:55;28.40;99.90
24800;DHT22;12897;50.812;4.430;2022-08-23T15:36:22;28.80;99.90
24800;DHT22;12897;50.812;4.430;2022-08-23T15:38:50;28.90;99.90
24800;DHT22;12897;50.812;4.430;2022-08-23T15:41:18;29.10;99.90
24800;DHT22;12897;50.812;4.430;2022-08-23T15:43:46;29.40;99.90
24800;DHT22;12897;50.812;4.430;2022-08-23T15:46:19;29.30;99.90
24800;DHT22;12897;50.812;4.430;2022-08-23T15:49:02;29.10;99.90
24800;DHT22;12897;50.812;4.430;2022-08-23T15:51:29;29.00;99.90
24800;DHT22;12897;50.812;4.430;2022-08-23T15:53:57;29.00;99.90
24800;DHT22;12897;50.812;4.430;2022-08-23T15:56:29;29.10;99.90
24800;DHT22;12897;50.812;4.430;2022-08-23T15:58:55;29.00;99.90
24800;DHT22;12897;50.812;4.430;2022-08-23T16:01:23;28.80;99.90
24800;DHT22;12897;50.812;4.430;2022-08-23T16:03:52;28.70;99.90
24800;DHT22;12897;50.812;4.430;2022-08-23T16:06:21;28.70;99.90
24800;DHT22;12897;50.812;4.430;2022-08-23T16:08:51;28.90;99.90
24800;DHT22;12897;50.812;4.430;2022-08-23T16:11:18;28.80;99.90
24800;DHT22;12897;50.812;4.430;2022-08-23T16:13:47;28.60;99.90
24800;DHT22;12897;50.812;4.430;2022-08-23T16:16:33;28.70;99.90
24800;DHT22;12897;50.812;4.430;2022-08-23T16:18:58;28.80;99.90
24800;DHT22;12897;50.812;4.430;2022-08-23T16:21:28;28.80;99.90
24800;DHT22;12897;50.812;4.430;2022-08-23T16:24:01;28.70;99.90
24800;DHT22;12897;50.812;4.430;2022-08-23T16:26:30;28.60;99.90
24800;DHT22;12897;50.812;4.430;2022-08-23T16:28:59;28.70;99.90
24800;DHT22;12897;50.812;4.430;2022-08-23T16:31:27;28.90;99.90
24800;DHT22;12897;50.812;4.430;2022-08-23T16:33:56;29.00;99.90
24800;DHT22;12897;50.812;4.430;2022-08-23T16:36:26;29.00;99.90
24800;DHT22;12897;50.812;4.430;2022-08-23T16:38:54;28.90;99.90
24800;DHT22;12897;50.812;4.430;2022-08-23T16:41:22;28.80;99.90
24800;DHT22;12897;50.812;4.430;2022-08-23T16:43:51;28.70;99.90
24800;DHT22;12897;50.812;4.430;2022-08-23T16:46:21;28.70;99.90
24800;DHT22;12897;50.812;4.430;2022-08-23T16:48:49;28.70;99.90
24800;DHT22;12897;50.812;4.430;2022-08-23T16:51:17;28.70;99.90
24800;DHT22;12897;50.812;4.430;2022-08-23T16:53:44;28.50;99.90
24800;DHT22;12897;50.812;4.430;2022-08-23T16:56:14;28.50;99.90
24800;DHT22;12897;50.812;4.430;2022-08-23T16:58:43;28.40;99.90
24800;DHT22;12897;50.812;4.430;2022-08-23T17:01:12;28.70;99.90
24800;DHT22;12897;50.812;4.430;2022-08-23T17:03:41;28.70;99.90
24800;DHT22;12897;50.812;4.430;2022-08-23T17:06:09;28.40;99.90
24800;DHT22;12897;50.812;4.430;2022-08-23T17:08:37;28.40;99.90